Time;durP1;ratioP1;P1;durP2;ratioP2;P2;SDS_P1;SDS_P2;PMS_P1;PMS_P2;Temp;Humidity;BMP_temperature;BMP_pressure;BME280_temperature;BME280_humidity;BME280_pressure;Samples;Min_cycle;Max_cycle;Signal;HPM_P1;HPM_P2
2024/02/20 00:00:34;;;;;;;;;;;9.50;1.00;;;;;;5074051;28;19951;-75
2024/02/20 00:03:28;;;;;;;;;;;9.50;1.00;;;;;;5077680;28;19909;-75
2024/02/20 00:06:05;;;;;;;;;;;9.50;1.00;;;;;;5097030;28;19909;-75
2024/02/20 00:08:34;;;;;;;;;;;9.50;1.00;;;;;;5090468;28;19958;-75
2024/02/20 00:11:01;;;;;;;;;;;9.50;1.00;;;;;;5085517;28;19957;-75
2024/02/20 00:13:27;;;;;;;;;;;9.50;1.00;;;;;;5085169;28;20003;-75
2024/02/20 00:15:52;;;;;;;;;;;9.50;1.00;;;;;;5076532;28;19960;-75
2024/02/20 00:18:18;;;;;;;;;;;9.40;1.00;;;;;;5077322;28;19916;-75
2024/02/20 00:21:04;;;;;;;;;;;9.40;1.00;;;;;;5081007;28;19917;-76
2024/02/20 00:23:36;;;;;;;;;;;9.40;1.00;;;;;;5077888;28;20346;-76
2024/02/20 00:26:04;;;;;;;;;;;9.30;1.00;;;;;;5077546;28;19912;-75
2024/02/20 00:28:40;;;;;;;;;;;9.20;1.00;;;;;;5077589;28;20406;-75
2024/02/20 00:31:08;;;;;;;;;;;9.10;1.00;;;;;;5064682;28;19908;-76
2024/02/20 00:33:35;;;;;;;;;;;9.10;1.00;;;;;;5081786;28;20437;-76
2024/02/20 00:36:07;;;;;;;;;;;9.10;1.00;;;;;;5077448;28;20279;-76
2024/02/20 00:38:34;;;;;;;;;;;9.10;1.00;;;;;;5077330;28;20344;-75
2024/02/20 00:41:10;;;;;;;;;;;9.10;1.00;;;;;;5077278;28;19912;-76
2024/02/20 00:43:47;;;;;;;;;;;9.10;1.00;;;;;;5077011;28;19919;-76
2024/02/20 00:46:19;;;;;;;;;;;9.00;1.00;;;;;;5076566;28;19974;-76
2024/02/20 00:51:52;;;;;;;;;;;9.10;1.00;;;;;;5063149;28;19915;-76
2024/02/20 00:54:40;;;;;;;;;;;9.10;1.00;;;;;;5076865;28;19908;-76
2024/02/20 01:00:28;;;;;;;;;;;9.00;1.00;;;;;;5091220;28;20433;-78
2024/02/20 01:03:28;;;;;;;;;;;8.90;1.00;;;;;;5076770;28;19913;-78
2024/02/20 01:08:57;;;;;;;;;;;8.80;1.00;;;;;;5068119;28;19946;-78
2024/02/20 01:17:28;;;;;;;;;;;8.70;1.00;;;;;;5071383;28;20001;-77
2024/02/20 01:22:56;;;;;;;;;;;8.60;1.00;;;;;;5072354;28;20342;-76
2024/02/20 01:25:52;;;;;;;;;;;8.60;1.00;;;;;;5084102;28;19908;-77
2024/02/20 01:28:23;;;;;;;;;;;8.50;1.00;;;;;;5068730;28;20029;-76
2024/02/20 01:31:06;;;;;;;;;;;8.50;1.00;;;;;;5076918;28;20383;-76
2024/02/20 01:33:32;;;;;;;;;;;8.50;1.00;;;;;;5076622;28;20348;-76
2024/02/20 01:35:59;;;;;;;;;;;8.50;1.00;;;;;;5062400;28;19958;-76
2024/02/20 01:38:34;;;;;;;;;;;8.50;1.00;;;;;;5076188;28;19915;-76
2024/02/20 01:41:22;;;;;;;;;;;8.50;1.00;;;;;;5064116;28;19916;-76
2024/02/20 01:46:59;;;;;;;;;;;8.50;1.00;;;;;;5089444;28;19923;-75
2024/02/20 01:49:29;;;;;;;;;;;8.50;1.00;;;;;;5076484;28;19966;-75
2024/02/20 01:51:59;;;;;;;;;;;8.50;1.00;;;;;;5076117;28;20019;-75
2024/02/20 01:54:54;;;;;;;;;;;8.50;1.00;;;;;;5076358;28;19915;-75
2024/02/20 01:57:22;;;;;;;;;;;8.50;1.00;;;;;;5071517;28;19913;-75
2024/02/20 01:59:54;;;;;;;;;;;8.50;1.00;;;;;;5093396;28;20055;-75
2024/02/20 02:05:58;;;;;;;;;;;8.50;1.00;;;;;;5082312;28;19961;-78
2024/02/20 02:08:52;;;;;;;;;;;8.50;1.00;;;;;;5066704;28;19908;-78
2024/02/20 02:11:29;;;;;;;;;;;8.50;1.00;;;;;;5066840;28;19912;-78
2024/02/20 02:14:22;;;;;;;;;;;8.60;1.00;;;;;;5055480;28;19913;-78
2024/02/20 02:19:51;;;;;;;;;;;8.50;1.00;;;;;;5062380;28;19959;-78
2024/02/20 02:25:40;;;;;;;;;;;8.60;1.00;;;;;;5074646;28;19938;-78
2024/02/20 02:31:17;;;;;;;;;;;8.60;1.00;;;;;;5075151;28;19919;-75
2024/02/20 02:33:53;;;;;;;;;;;8.60;1.00;;;;;;5081891;28;19962;-76
2024/02/20 02:36:18;;;;;;;;;;;8.60;1.00;;;;;;5077425;28;19923;-75
2024/02/20 02:39:17;;;;;;;;;;;8.60;1.00;;;;;;5075942;28;19916;-75
2024/02/20 02:41:42;;;;;;;;;;;8.60;1.00;;;;;;5073608;28;19916;-75
2024/02/20 02:44:08;;;;;;;;;;;8.60;1.00;;;;;;5057534;28;19919;-76
2024/02/20 02:46:52;;;;;;;;;;;8.60;1.00;;;;;;5075284;28;19912;-76
2024/02/20 02:49:23;;;;;;;;;;;8.60;1.00;;;;;;5074725;28;19931;-76
2024/02/20 02:52:00;;;;;;;;;;;8.70;1.00;;;;;;5076883;28;19926;-75
2024/02/20 02:54:40;;;;;;;;;;;8.70;1.00;;;;;;5074932;28;19912;-75
2024/02/20 02:57:22;;;;;;;;;;;8.70;1.00;;;;;;5081999;28;20056;-76
2024/02/20 02:59:53;;;;;;;;;;;8.70;1.00;;;;;;5074632;28;19912;-75
2024/02/20 03:02:46;;;;;;;;;;;8.80;1.00;;;;;;5073855;28;19912;-75
2024/02/20 03:05:13;;;;;;;;;;;8.80;1.00;;;;;;5073549;28;19912;-75
2024/02/20 03:07:48;;;;;;;;;;;8.80;1.00;;;;;;5076750;28;19934;-75
2024/02/20 03:10:14;;;;;;;;;;;8.90;1.00;;;;;;5065966;28;19913;-75
2024/02/20 03:12:40;;;;;;;;;;;8.90;1.00;;;;;;5067872;28;19909;-76
2024/02/20 03:15:11;;;;;;;;;;;8.90;1.00;;;;;;5075792;28;20356;-75
2024/02/20 03:17:47;;;;;;;;;;;8.90;1.00;;;;;;5078529;28;20016;-75
2024/02/20 03:20:14;;;;;;;;;;;8.90;1.00;;;;;;5080598;28;19939;-75
2024/02/20 03:22:47;;;;;;;;;;;8.90;1.00;;;;;;5094075;28;19912;-75
2024/02/20 03:25:14;;;;;;;;;;;9.00;1.00;;;;;;5082271;28;19919;-75
2024/02/20 03:27:40;;;;;;;;;;;9.00;1.00;;;;;;5088789;28;19951;-75
2024/02/20 03:30:11;;;;;;;;;;;9.00;1.00;;;;;;5074353;28;20005;-75
2024/02/20 03:35:39;;;;;;;;;;;9.00;1.00;;;;;;5073926;28;19955;-78
2024/02/20 03:38:28;;;;;;;;;;;9.00;1.00;;;;;;5072355;28;19970;-78
2024/02/20 03:41:28;;;;;;;;;;;8.90;1.00;;;;;;5073884;28;19919;-78
2024/02/20 03:44:28;;;;;;;;;;;8.80;1.00;;;;;;5059957;28;19962;-78
2024/02/20 03:46:58;;;;;;;;;;;8.70;1.00;;;;;;5074479;28;19916;-78
2024/02/20 04:10:59;;;;;;;;;;;8.10;1.00;;;;;;5079804;28;19919;-78
2024/02/20 04:13:58;;;;;;;;;;;8.00;1.00;;;;;;5061525;28;19908;-78
2024/02/20 04:16:58;;;;;;;;;;;8.00;1.00;;;;;;5075785;28;19912;-78
2024/02/20 04:19:29;;;;;;;;;;;7.90;1.00;;;;;;5076618;28;19915;-77
2024/02/20 04:21:54;;;;;;;;;;;7.90;1.00;;;;;;5073927;28;19921;-76
2024/02/20 04:27:29;;;;;;;;;;;7.80;1.00;;;;;;5069439;28;19920;-77
2024/02/20 04:32:54;;;;;;;;;;;7.70;1.00;;;;;;5065212;28;19920;-79
2024/02/20 04:35:20;;;;;;;;;;;7.60;1.00;;;;;;5051896;28;19992;-78
2024/02/20 04:43:51;;;;;;;;;;;7.60;1.00;;;;;;5077492;28;19962;-78
2024/02/20 05:04:41;;;;;;;;;;;7.60;1.00;;;;;;5073041;28;19991;-76
2024/02/20 05:07:11;;;;;;;;;;;7.50;1.00;;;;;;5077146;28;19935;-77
2024/02/20 05:12:42;;;;;;;;;;;7.40;1.00;;;;;;5076513;28;19955;-76
2024/02/20 05:15:11;;;;;;;;;;;7.40;1.00;;;;;;5076883;28;19921;-77
2024/02/20 05:17:58;;;;;;;;;;;7.40;1.00;;;;;;5076749;28;19908;-78
2024/02/20 05:20:35;;;;;;;;;;;7.40;1.00;;;;;;5064093;28;20271;-78
2024/02/20 05:23:29;;;;;;;;;;;7.40;1.00;;;;;;5076308;28;19920;-78
2024/02/20 05:29:29;;;;;;;;;;;7.60;1.00;;;;;;5076254;28;19965;-78
2024/02/20 05:32:29;;;;;;;;;;;7.70;1.00;;;;;;5075934;28;19909;-78
2024/02/20 05:35:22;;;;;;;;;;;7.90;1.00;;;;;;5072966;28;19913;-76
2024/02/20 05:37:59;;;;;;;;;;;7.90;1.00;;;;;;5071804;28;20379;-77
2024/02/20 05:43:27;;;;;;;;;;;8.00;1.00;;;;;;5073063;28;19966;-81
2024/02/20 05:48:59;;;;;;;;;;;8.10;1.00;;;;;;5075452;28;19919;-78
2024/02/20 05:51:58;;;;;;;;;;;8.20;1.00;;;;;;5075604;28;20000;-77
2024/02/20 05:54:35;;;;;;;;;;;8.20;1.00;;;;;;5062648;28;19919;-76
2024/02/20 05:57:29;;;;;;;;;;;8.20;1.00;;;;;;5066885;28;19914;-77
2024/02/20 05:59:59;;;;;;;;;;;8.10;1.00;;;;;;5063813;28;19951;-77
2024/02/20 06:02:29;;;;;;;;;;;8.10;1.00;;;;;;5071655;28;20323;-76
2024/02/20 06:04:59;;;;;;;;;;;8.00;1.00;;;;;;5073001;28;19908;-76
2024/02/20 06:07:30;;;;;;;;;;;8.00;1.00;;;;;;5080328;28;20332;-77
2024/02/20 06:09:59;;;;;;;;;;;8.10;1.00;;;;;;5078513;28;19991;-76
2024/02/20 06:12:46;;;;;;;;;;;8.10;1.00;;;;;;5073817;28;20383;-77
2024/02/20 06:15:17;;;;;;;;;;;8.10;1.00;;;;;;5069770;28;19951;-76
2024/02/20 06:17:48;;;;;;;;;;;8.10;1.00;;;;;;5069702;28;20003;-76
2024/02/20 06:20:41;;;;;;;;;;;8.10;1.00;;;;;;5079375;28;19909;-79
2024/02/20 06:32:29;;;;;;;;;;;8.00;1.00;;;;;;5072633;28;19931;-77
2024/02/20 06:35:28;;;;;;;;;;;8.00;1.00;;;;;;5083430;28;19912;-76
2024/02/20 06:37:59;;;;;;;;;;;8.00;1.00;;;;;;5064943;28;19919;-76
2024/02/20 06:40:29;;;;;;;;;;;8.00;1.00;;;;;;5064744;28;19909;-78
2024/02/20 06:42:54;;;;;;;;;;;8.00;1.00;;;;;;5070753;28;19909;-78
2024/02/20 06:45:29;;;;;;;;;;;8.10;1.00;;;;;;5071008;28;20046;-78
2024/02/20 06:47:59;;;;;;;;;;;8.20;1.00;;;;;;5072708;28;19915;-78
2024/02/20 06:50:29;;;;;;;;;;;8.10;1.00;;;;;;5067990;28;19908;-78
2024/02/20 06:52:59;;;;;;;;;;;8.10;1.00;;;;;;5074116;28;19908;-77
2024/02/20 06:55:29;;;;;;;;;;;8.10;1.00;;;;;;5069563;28;19915;-76
2024/02/20 06:58:05;;;;;;;;;;;8.20;1.00;;;;;;5065240;28;19951;-79
2024/02/20 07:00:47;;;;;;;;;;;8.10;1.00;;;;;;5067933;28;19913;-77
2024/02/20 07:03:41;;;;;;;;;;;8.20;1.00;;;;;;5070852;28;19912;-77
2024/02/20 07:06:17;;;;;;;;;;;8.20;1.00;;;;;;5086543;28;19961;-77
2024/02/20 07:11:59;;;;;;;;;;;8.00;1.00;;;;;;5067715;28;19931;-78
2024/02/20 07:14:24;;;;;;;;;;;8.00;1.00;;;;;;5077735;28;20054;-77
2024/02/20 07:16:59;;;;;;;;;;;8.00;1.00;;;;;;5076430;28;19990;-77
2024/02/20 07:19:59;;;;;;;;;;;8.10;1.00;;;;;;5068031;28;19909;-77
2024/02/20 07:22:25;;;;;;;;;;;8.10;1.00;;;;;;5075167;28;20003;-77
2024/02/20 07:25:05;;;;;;;;;;;8.00;1.00;;;;;;5071046;28;19913;-77
2024/02/20 07:27:42;;;;;;;;;;;8.20;1.00;;;;;;5070479;28;20267;-78
2024/02/20 07:30:30;;;;;;;;;;;8.20;1.00;;;;;;5076914;28;19917;-77
2024/02/20 07:33:23;;;;;;;;;;;8.30;1.00;;;;;;5081695;28;19931;-78
2024/02/20 07:36:11;;;;;;;;;;;8.30;1.00;;;;;;5077526;28;19913;-78
2024/02/20 07:38:44;;;;;;;;;;;8.40;1.00;;;;;;5082391;28;20015;-76
2024/02/20 07:41:23;;;;;;;;;;;8.40;1.00;;;;;;5067084;28;19971;-77
2024/02/20 07:47:11;;;;;;;;;;;8.90;1.00;;;;;;5075200;28;19958;-77
2024/02/20 07:49:59;;;;;;;;;;;8.90;1.00;;;;;;5088519;28;19935;-77
2024/02/20 07:52:29;;;;;;;;;;;8.90;1.00;;;;;;5069862;28;19909;-77
2024/02/20 07:55:28;;;;;;;;;;;8.90;1.00;;;;;;5066879;28;19909;-77
2024/02/20 07:58:06;;;;;;;;;;;8.90;1.00;;;;;;5063331;28;20356;-76
2024/02/20 08:00:47;;;;;;;;;;;8.90;1.00;;;;;;5070610;28;19915;-77
2024/02/20 08:03:13;;;;;;;;;;;8.80;1.00;;;;;;5083890;28;19908;-77
2024/02/20 08:05:41;;;;;;;;;;;8.80;1.00;;;;;;5077780;28;19937;-78
2024/02/20 08:08:29;;;;;;;;;;;8.90;1.00;;;;;;5064690;28;20369;-79
2024/02/20 08:11:29;;;;;;;;;;;9.00;1.00;;;;;;5065552;28;19998;-82
2024/02/20 08:14:29;;;;;;;;;;;9.00;1.00;;;;;;5073839;28;20424;-78
2024/02/20 08:17:29;;;;;;;;;;;9.00;1.00;;;;;;5063337;28;19909;-79
2024/02/20 08:19:59;;;;;;;;;;;9.10;1.00;;;;;;5075317;28;19912;-77
2024/02/20 08:22:29;;;;;;;;;;;9.20;1.00;;;;;;5090336;28;19923;-78
2024/02/20 08:25:22;;;;;;;;;;;9.50;1.00;;;;;;5077260;28;20269;-79
2024/02/20 08:34:29;;;;;;;;;;;9.50;1.00;;;;;;5080607;28;19966;-78
2024/02/20 08:37:30;;;;;;;;;;;9.80;1.00;;;;;;5097074;28;19962;-77
2024/02/20 08:40:00;;;;;;;;;;;9.90;1.00;;;;;;5085062;28;19909;-77
2024/02/20 08:42:41;;;;;;;;;;;10.10;1.00;;;;;;5073881;28;19913;-77
2024/02/20 08:45:08;;;;;;;;;;;10.10;1.00;;;;;;5073242;28;19919;-77
2024/02/20 08:47:34;;;;;;;;;;;10.20;1.00;;;;;;5076777;28;19917;-77
2024/02/20 08:50:00;;;;;;;;;;;10.10;1.00;;;;;;5077001;28;19972;-77
2024/02/20 08:52:35;;;;;;;;;;;10.10;1.00;;;;;;5076855;28;20003;-77
2024/02/20 08:55:00;;;;;;;;;;;10.20;1.00;;;;;;5076624;28;19916;-77
2024/02/20 08:57:29;;;;;;;;;;;10.20;1.00;;;;;;5076280;28;19909;-77
2024/02/20 08:59:54;;;;;;;;;;;10.20;1.00;;;;;;5076435;28;19935;-78
2024/02/20 09:02:20;;;;;;;;;;;10.40;1.00;;;;;;5075341;28;19916;-77
2024/02/20 09:04:46;;;;;;;;;;;10.50;1.00;;;;;;5075751;28;19918;-77
2024/02/20 09:07:47;;;;;;;;;;;10.60;1.00;;;;;;5077658;28;19908;-77
2024/02/20 09:10:29;;;;;;;;;;;10.60;1.00;;;;;;5061210;28;19908;-76
2024/02/20 09:13:29;;;;;;;;;;;10.60;1.00;;;;;;5073762;28;19951;-77
2024/02/20 09:16:29;;;;;;;;;;;10.60;1.00;;;;;;5080401;28;19991;-79
2024/02/20 09:19:29;;;;;;;;;;;10.70;1.00;;;;;;5078053;28;19915;-79
2024/02/20 09:21:54;;;;;;;;;;;10.60;1.00;;;;;;5073210;28;19966;-77
2024/02/20 09:24:23;;;;;;;;;;;10.70;1.00;;;;;;5062895;28;19916;-77
2024/02/20 09:26:59;;;;;;;;;;;10.90;1.00;;;;;;5089495;28;20053;-76
2024/02/20 09:29:31;;;;;;;;;;;10.80;1.00;;;;;;5075252;28;19912;-77
2024/02/20 09:32:05;;;;;;;;;;;10.80;1.00;;;;;;5076045;28;19935;-77
2024/02/20 09:34:47;;;;;;;;;;;10.80;1.00;;;;;;5064625;28;20398;-77
2024/02/20 09:43:18;;;;;;;;;;;10.80;1.00;;;;;;5073042;28;19955;-84
2024/02/20 09:51:39;;;;;;;;;;;11.20;1.00;;;;;;5086460;28;19919;-80
2024/02/20 09:54:35;;;;;;;;;;;11.10;1.00;;;;;;5075908;28;19909;-80
2024/02/20 09:57:02;;;;;;;;;;;11.00;1.00;;;;;;5076131;28;19913;-79
2024/02/20 10:02:31;;;;;;;;;;;11.60;1.00;;;;;;5075979;28;19966;-79
2024/02/20 10:04:59;;;;;;;;;;;11.60;1.00;;;;;;5050710;28;19909;-78
2024/02/20 10:07:25;;;;;;;;;;;11.60;1.00;;;;;;5070303;28;20305;-78
2024/02/20 10:09:59;;;;;;;;;;;11.80;1.00;;;;;;5064864;28;19908;-78
2024/02/20 10:12:59;;;;;;;;;;;11.80;1.00;;;;;;5074114;28;19916;-79
2024/02/20 10:15:59;;;;;;;;;;;11.70;1.00;;;;;;5068967;28;19912;-79
2024/02/20 10:18:53;;;;;;;;;;;11.80;1.00;;;;;;5074781;28;19926;-88
2024/02/20 10:21:18;;;;;;;;;;;12.00;1.00;;;;;;5074304;28;19916;-82
2024/02/20 10:23:47;;;;;;;;;;;12.70;1.00;;;;;;5057384;28;19915;-75
2024/02/20 10:26:34;;;;;;;;;;;11.90;1.00;;;;;;5074159;28;19916;-75
2024/02/20 10:29:05;;;;;;;;;;;11.70;1.00;;;;;;5058313;28;19920;-75
2024/02/20 10:38:12;;;;;;;;;;;11.50;1.00;;;;;;5070433;28;20425;-80
2024/02/20 10:40:59;;;;;;;;;;;11.60;1.00;;;;;;5088740;28;19945;-82
2024/02/20 10:46:41;;;;;;;;;;;11.70;1.00;;;;;;5067157;28;19921;-80
2024/02/20 10:52:10;;;;;;;;;;;12.00;1.00;;;;;;5075072;28;19919;-79
2024/02/20 11:01:05;;;;;;;;;;;12.70;1.00;;;;;;5086436;28;20009;-79
2024/02/20 11:03:59;;;;;;;;;;;12.60;1.00;;;;;;5069566;28;20021;-79
2024/02/20 11:09:27;;;;;;;;;;;12.50;1.00;;;;;;5066372;28;19959;-79
2024/02/20 11:12:29;;;;;;;;;;;12.50;1.00;;;;;;5071692;28;20314;-78
2024/02/20 11:15:14;;;;;;;;;;;12.50;1.00;;;;;;5068676;28;19991;-78
2024/02/20 11:18:11;;;;;;;;;;;12.60;1.00;;;;;;5080469;28;19912;-82
2024/02/20 11:23:40;;;;;;;;;;;12.70;1.00;;;;;;5064170;28;20019;-84
2024/02/20 11:26:29;;;;;;;;;;;12.70;1.00;;;;;;5072479;28;20393;-84
2024/02/20 11:28:55;;;;;;;;;;;12.90;1.00;;;;;;5079144;28;19912;-85
2024/02/20 11:34:27;;;;;;;;;;;13.00;1.00;;;;;;5068389;28;20279;-81
2024/02/20 11:36:53;;;;;;;;;;;13.10;1.00;;;;;;5079778;28;20375;-84
2024/02/20 11:39:53;;;;;;;;;;;13.60;1.00;;;;;;5074323;28;19943;-90
2024/02/20 11:42:19;;;;;;;;;;;13.60;1.00;;;;;;5079341;28;19951;-89
2024/02/20 11:44:59;;;;;;;;;;;13.70;1.00;;;;;;5077529;28;19915;-90
2024/02/20 11:50:30;;;;;;;;;;;14.00;1.00;;;;;;5083839;28;20398;-90
2024/02/20 11:56:30;;;;;;;;;;;14.00;1.00;;;;;;5074158;28;20429;-88
2024/02/20 11:59:29;;;;;;;;;;;13.70;1.00;;;;;;5080044;28;20417;-91
2024/02/20 12:02:29;;;;;;;;;;;13.80;1.00;;;;;;5082482;28;19913;-90
2024/02/20 12:05:29;;;;;;;;;;;13.80;1.00;;;;;;5050595;28;19913;-90
2024/02/20 12:08:09;;;;;;;;;;;13.70;1.00;;;;;;5055055;28;20357;-89
2024/02/20 12:10:59;;;;;;;;;;;13.70;1.00;;;;;;5052974;28;19913;-91
2024/02/20 12:16:29;;;;;;;;;;;13.70;1.00;;;;;;5076919;28;19924;-90
2024/02/20 12:19:30;;;;;;;;;;;13.90;1.00;;;;;;5060064;28;19969;-91
2024/02/20 12:22:03;;;;;;;;;;;14.00;1.00;;;;;;5058815;28;20288;-86
2024/02/20 12:24:35;;;;;;;;;;;14.00;1.00;;;;;;5050764;28;19920;-82
2024/02/20 12:30:04;;;;;;;;;;;13.90;1.00;;;;;;5072280;28;20004;-82
2024/02/20 12:39:11;;;;;;;;;;;13.40;1.00;;;;;;5083925;28;20420;-83
2024/02/20 12:44:58;;;;;;;;;;;13.00;1.00;;;;;;5061808;28;19957;-83
2024/02/20 12:47:59;;;;;;;;;;;13.30;1.00;;;;;;5068081;28;19919;-82
2024/02/20 12:50:59;;;;;;;;;;;13.30;1.00;;;;;;5077591;28;19961;-81
2024/02/20 12:53:59;;;;;;;;;;;13.30;1.00;;;;;;5077991;28;19912;-82
2024/02/20 12:56:59;;;;;;;;;;;13.10;1.00;;;;;;5062227;28;19913;-82
2024/02/20 12:59:41;;;;;;;;;;;13.20;1.00;;;;;;5072186;28;19919;-81
2024/02/20 13:02:29;;;;;;;;;;;13.20;1.00;;;;;;5074570;28;19917;-84
2024/02/20 13:05:11;;;;;;;;;;;13.10;1.00;;;;;;5065900;28;19913;-83
2024/02/20 13:16:47;;;;;;;;;;;12.60;1.00;;;;;;5074719;28;19916;-81
2024/02/20 13:19:35;;;;;;;;;;;12.70;1.00;;;;;;5070952;28;20007;-83
2024/02/20 13:22:30;;;;;;;;;;;13.00;1.00;;;;;;5071003;28;19922;-83
2024/02/20 13:24:59;;;;;;;;;;;13.20;1.00;;;;;;5071062;28;19920;-85
2024/02/20 13:27:35;;;;;;;;;;;13.20;1.00;;;;;;5072230;28;20006;-85
2024/02/20 13:30:05;;;;;;;;;;;13.40;1.00;;;;;;5056397;28;19959;-82
2024/02/20 13:32:31;;;;;;;;;;;13.40;1.00;;;;;;5067196;28;19924;-77
2024/02/20 13:35:05;;;;;;;;;;;13.30;1.00;;;;;;5072036;28;19913;-77
2024/02/20 13:40:35;;;;;;;;;;;13.20;1.00;;;;;;5070891;28;19935;-77
2024/02/20 13:43:29;;;;;;;;;;;13.20;1.00;;;;;;5078903;28;19920;-78
2024/02/20 13:46:00;;;;;;;;;;;13.20;1.00;;;;;;5073274;28;19952;-76
2024/02/20 13:55:05;;;;;;;;;;;13.10;1.00;;;;;;5069042;28;19915;-77
2024/02/20 14:00:34;;;;;;;;;;;13.10;1.00;;;;;;5067315;28;20010;-77
2024/02/20 14:03:30;;;;;;;;;;;12.80;1.00;;;;;;5063700;28;20384;-79
2024/02/20 14:05:59;;;;;;;;;;;12.50;1.00;;;;;;5073887;28;20295;-77
2024/02/20 14:08:53;;;;;;;;;;;12.50;1.00;;;;;;5071314;28;19908;-76
2024/02/20 14:11:23;;;;;;;;;;;12.50;1.00;;;;;;5046529;28;20418;-77
2024/02/20 14:13:59;;;;;;;;;;;12.50;1.00;;;;;;5066684;28;20386;-78
2024/02/20 14:16:37;;;;;;;;;;;12.40;1.00;;;;;;5074700;28;20406;-77
2024/02/20 14:22:23;;;;;;;;;;;12.50;1.00;;;;;;5067349;28;20077;-76
2024/02/20 14:24:53;;;;;;;;;;;12.50;1.00;;;;;;5063888;28;19934;-77
2024/02/20 14:27:23;;;;;;;;;;;12.50;1.00;;;;;;5049863;28;19908;-77
2024/02/20 14:30:17;;;;;;;;;;;12.50;1.00;;;;;;5073048;28;19912;-77
2024/02/20 14:33:03;;;;;;;;;;;12.60;1.00;;;;;;5072709;28;19912;-76
2024/02/20 14:35:42;;;;;;;;;;;12.50;1.00;;;;;;5073844;28;19955;-76
2024/02/20 14:38:29;;;;;;;;;;;12.50;1.00;;;;;;5080507;28;19915;-76
2024/02/20 14:41:23;;;;;;;;;;;12.40;1.00;;;;;;5058397;28;19913;-77
2024/02/20 14:43:53;;;;;;;;;;;12.50;1.00;;;;;;5088439;28;19912;-76
2024/02/20 14:46:18;;;;;;;;;;;12.40;1.00;;;;;;5077163;28;19924;-75
2024/02/20 14:48:48;;;;;;;;;;;12.40;1.00;;;;;;5080933;28;19912;-75
2024/02/20 14:51:23;;;;;;;;;;;12.30;1.00;;;;;;5076505;28;20286;-75
2024/02/20 14:53:49;;;;;;;;;;;12.20;1.00;;;;;;5074116;28;19924;-75
2024/02/20 14:56:17;;;;;;;;;;;12.10;1.00;;;;;;5082744;28;19974;-75
2024/02/20 14:58:43;;;;;;;;;;;12.00;1.00;;;;;;5077715;28;19925;-75
2024/02/20 15:01:23;;;;;;;;;;;11.90;1.00;;;;;;5064097;28;19943;-78
2024/02/20 15:03:49;;;;;;;;;;;11.80;1.00;;;;;;5070367;28;19919;-76
2024/02/20 15:06:29;;;;;;;;;;;11.80;1.00;;;;;;5062880;28;20299;-75
2024/02/20 15:09:29;;;;;;;;;;;11.70;1.00;;;;;;5060861;28;19975;-78
2024/02/20 15:12:31;;;;;;;;;;;11.70;1.00;;;;;;5068985;28;19920;-78
2024/02/20 15:15:11;;;;;;;;;;;11.60;1.00;;;;;;5073280;28;19919;-77
2024/02/20 15:17:47;;;;;;;;;;;11.60;1.00;;;;;;5076799;28;20017;-78
2024/02/20 15:20:13;;;;;;;;;;;11.70;1.00;;;;;;5067946;28;19913;-77
2024/02/20 15:22:53;;;;;;;;;;;11.70;1.00;;;;;;5073501;28;19923;-77
2024/02/20 15:25:29;;;;;;;;;;;11.80;1.00;;;;;;5071394;28;20032;-80
2024/02/20 15:27:59;;;;;;;;;;;11.90;1.00;;;;;;5074223;28;19940;-80
2024/02/20 15:30:25;;;;;;;;;;;11.90;1.00;;;;;;5062099;28;19917;-77
2024/02/20 15:32:53;;;;;;;;;;;11.90;1.00;;;;;;5077716;28;19914;-77
2024/02/20 15:35:30;;;;;;;;;;;11.80;1.00;;;;;;5074406;28;19923;-78
2024/02/20 15:38:29;;;;;;;;;;;11.60;1.00;;;;;;5065196;28;19912;-79
2024/02/20 15:40:59;;;;;;;;;;;11.60;1.00;;;;;;5075392;28;19912;-77
2024/02/20 15:43:59;;;;;;;;;;;11.60;1.00;;;;;;5076738;28;20007;-78
2024/02/20 15:46:59;;;;;;;;;;;11.60;1.00;;;;;;5072683;28;19916;-78
2024/02/20 15:49:53;;;;;;;;;;;11.60;1.00;;;;;;5069160;28;19944;-77
2024/02/20 15:55:31;;;;;;;;;;;11.60;1.00;;;;;;5073740;28;19920;-77
2024/02/20 15:58:29;;;;;;;;;;;11.50;1.00;;;;;;5075464;28;20003;-78
2024/02/20 16:01:29;;;;;;;;;;;11.30;1.00;;;;;;5075853;28;19952;-78
2024/02/20 16:04:29;;;;;;;;;;;11.30;1.00;;;;;;5074518;28;19920;-78
2024/02/20 16:07:29;;;;;;;;;;;11.10;1.00;;;;;;5063255;28;19958;-78
2024/02/20 16:10:29;;;;;;;;;;;11.00;1.00;;;;;;5075413;28;19912;-78
2024/02/20 16:12:59;;;;;;;;;;;10.90;1.00;;;;;;5092797;28;19919;-79
2024/02/20 16:15:59;;;;;;;;;;;10.90;1.00;;;;;;5066333;28;20302;-77
2024/02/20 16:18:53;;;;;;;;;;;10.80;1.00;;;;;;5073633;28;20447;-78
2024/02/20 16:21:23;;;;;;;;;;;10.80;1.00;;;;;;5065039;28;19920;-78
2024/02/20 16:23:50;;;;;;;;;;;10.70;1.00;;;;;;5064914;28;20045;-78
2024/02/20 16:26:29;;;;;;;;;;;10.70;1.00;;;;;;5073670;28;19915;-78
2024/02/20 16:28:55;;;;;;;;;;;10.70;1.00;;;;;;5073350;28;20385;-78
2024/02/20 16:31:41;;;;;;;;;;;10.60;1.00;;;;;;5072848;28;19948;-78
2024/02/20 16:34:11;;;;;;;;;;;10.40;1.00;;;;;;5073463;28;19919;-78
2024/02/20 16:36:47;;;;;;;;;;;10.40;1.00;;;;;;5073748;28;19919;-78
2024/02/20 16:39:23;;;;;;;;;;;10.40;1.00;;;;;;5063452;28;19913;-77
2024/02/20 16:41:59;;;;;;;;;;;10.30;1.00;;;;;;5068493;28;19923;-78
2024/02/20 16:44:29;;;;;;;;;;;10.30;1.00;;;;;;5066213;28;19919;-78
2024/02/20 16:50:30;;;;;;;;;;;10.20;1.00;;;;;;5076897;28;19916;-77
2024/02/20 16:53:05;;;;;;;;;;;10.20;1.00;;;;;;5076800;28;19912;-78
2024/02/20 16:55:35;;;;;;;;;;;10.10;1.00;;;;;;5059310;28;19970;-76
2024/02/20 16:58:23;;;;;;;;;;;10.00;1.00;;;;;;5075102;28;19913;-76
2024/02/20 17:01:11;;;;;;;;;;;10.00;1.00;;;;;;5067615;28;20379;-77
2024/02/20 17:03:53;;;;;;;;;;;9.90;1.00;;;;;;5076963;28;19917;-75
2024/02/20 17:06:29;;;;;;;;;;;9.90;1.00;;;;;;5078072;28;19921;-76
2024/02/20 17:09:17;;;;;;;;;;;9.90;1.00;;;;;;5081118;28;19908;-77
2024/02/20 17:11:59;;;;;;;;;;;9.90;1.00;;;;;;5076791;28;19913;-78
2024/02/20 17:14:29;;;;;;;;;;;9.80;1.00;;;;;;5076711;28;19951;-79
2024/02/20 17:17:24;;;;;;;;;;;9.70;1.00;;;;;;5076527;28;19915;-79
2024/02/20 17:19:54;;;;;;;;;;;9.70;1.00;;;;;;5059464;28;19958;-77
2024/02/20 17:22:20;;;;;;;;;;;9.70;1.00;;;;;;5067053;28;19913;-75
2024/02/20 17:24:53;;;;;;;;;;;9.70;1.00;;;;;;5075654;28;20401;-76
2024/02/20 17:27:23;;;;;;;;;;;9.70;1.00;;;;;;5076702;28;19959;-76
2024/02/20 17:29:59;;;;;;;;;;;9.60;1.00;;;;;;5084130;28;19912;-76
2024/02/20 17:32:25;;;;;;;;;;;9.60;1.00;;;;;;5079678;28;19974;-77
2024/02/20 17:37:54;;;;;;;;;;;9.60;1.00;;;;;;5064402;28;19930;-78
2024/02/20 17:40:23;;;;;;;;;;;9.70;1.00;;;;;;5079596;28;19991;-76
2024/02/20 17:42:50;;;;;;;;;;;9.70;1.00;;;;;;5065092;28;20383;-76
2024/02/20 17:45:48;;;;;;;;;;;9.70;1.00;;;;;;5075848;28;19916;-75
2024/02/20 17:48:23;;;;;;;;;;;9.70;1.00;;;;;;5076029;28;19908;-76
2024/02/20 17:50:49;;;;;;;;;;;9.70;1.00;;;;;;5056246;28;19917;-75
2024/02/20 17:53:17;;;;;;;;;;;9.70;1.00;;;;;;5073337;28;20016;-75
2024/02/20 17:55:53;;;;;;;;;;;9.60;1.00;;;;;;5087671;28;19913;-80
2024/02/20 17:58:19;;;;;;;;;;;9.60;1.00;;;;;;5075483;28;19912;-80
2024/02/20 18:00:44;;;;;;;;;;;9.60;1.00;;;;;;5052845;28;19908;-77
2024/02/20 18:03:11;;;;;;;;;;;9.50;1.00;;;;;;5057592;28;19920;-82
2024/02/20 18:05:37;;;;;;;;;;;9.60;1.00;;;;;;5075127;28;20055;-78
2024/02/20 18:08:03;;;;;;;;;;;9.60;1.00;;;;;;5076487;28;19942;-77
2024/02/20 18:10:31;;;;;;;;;;;9.50;1.00;;;;;;5074912;28;19909;-77
2024/02/20 18:13:29;;;;;;;;;;;9.50;1.00;;;;;;5074542;28;19920;-77
2024/02/20 18:16:05;;;;;;;;;;;9.50;1.00;;;;;;5075789;28;19909;-77
2024/02/20 18:18:53;;;;;;;;;;;9.50;1.00;;;;;;5072548;28;19908;-77
2024/02/20 18:21:47;;;;;;;;;;;9.50;1.00;;;;;;5075394;28;20283;-77
2024/02/20 18:24:23;;;;;;;;;;;9.50;1.00;;;;;;5074224;28;19923;-76
2024/02/20 18:26:53;;;;;;;;;;;9.40;1.00;;;;;;5081615;28;19917;-77
2024/02/20 18:29:20;;;;;;;;;;;9.40;1.00;;;;;;5075391;28;19923;-77
2024/02/20 18:31:53;;;;;;;;;;;9.40;1.00;;;;;;5074796;28;20390;-78
2024/02/20 18:34:29;;;;;;;;;;;9.40;1.00;;;;;;5075264;28;19917;-78
2024/02/20 18:36:59;;;;;;;;;;;9.30;1.00;;;;;;5075071;28;19912;-79
2024/02/20 18:39:55;;;;;;;;;;;9.30;1.00;;;;;;5079667;28;19915;-78
2024/02/20 18:42:50;;;;;;;;;;;9.30;1.00;;;;;;5079673;28;19916;-78
2024/02/20 18:45:53;;;;;;;;;;;9.20;1.00;;;;;;5075052;28;20011;-79
2024/02/20 18:48:23;;;;;;;;;;;9.10;1.00;;;;;;5069812;28;19938;-79
2024/02/20 18:50:59;;;;;;;;;;;9.20;1.00;;;;;;5069377;28;20065;-78
2024/02/20 18:53:29;;;;;;;;;;;9.10;1.00;;;;;;5067252;28;19919;-79
2024/02/20 18:56:23;;;;;;;;;;;9.10;1.00;;;;;;5069561;28;19913;-80
2024/02/20 18:58:53;;;;;;;;;;;9.00;1.00;;;;;;5074283;28;20019;-77
2024/02/20 19:01:23;;;;;;;;;;;9.00;1.00;;;;;;5073813;28;20015;-78
2024/02/20 19:03:59;;;;;;;;;;;9.10;1.00;;;;;;5074719;28;19955;-78
2024/02/20 19:06:29;;;;;;;;;;;9.10;1.00;;;;;;5074367;28;20017;-78
2024/02/20 19:08:59;;;;;;;;;;;9.10;1.00;;;;;;5073978;28;20389;-78
2024/02/20 19:11:29;;;;;;;;;;;9.10;1.00;;;;;;5073567;28;19912;-77
2024/02/20 19:14:24;;;;;;;;;;;9.10;1.00;;;;;;5070222;28;19908;-76
2024/02/20 19:16:53;;;;;;;;;;;9.10;1.00;;;;;;5074345;28;19912;-77
2024/02/20 19:19:29;;;;;;;;;;;9.10;1.00;;;;;;5074332;28;20306;-76
2024/02/20 19:21:59;;;;;;;;;;;9.10;1.00;;;;;;5054446;28;19912;-76
2024/02/20 19:24:29;;;;;;;;;;;9.00;1.00;;;;;;5070533;28;19920;-76